Time,TemperatureF,DewpointF,PressureIn,WindDirection,WindDirectionDegrees,WindSpeedMPH,WindSpeedGustMPH,Humidity,HourlyPrecipIn,Conditions,Clouds,dailyrainin,SoftwareType,DateUTC
2013-02-25 00:00:00,32.2,27.6,30.13,WSW,248,0.0,0.0,83,0.00,RA,,0.00,WeatherDisplay:10.37,2013-02-25 08:00:00,
2013-02-25 00:05:00,32.2,27.9,30.12,WSW,248,0.0,0.0,84,0.00,RA,,0.00,WeatherDisplay:10.37,2013-02-25 08:05:00,
2013-02-25 00:10:00,32.4,28.1,30.12,WSW,248,0.0,0.0,84,0.00,CLR,,0.00,WeatherDisplay:10.37,2013-02-25 08:10:00,
2013-02-25 00:15:00,32.4,28.1,30.11,WSW,248,0.0,0.0,84,0.00,CLR,,0.00,WeatherDisplay:10.37,2013-02-25 08:15:00,
2013-02-25 00:20:00,32.4,28.1,30.12,WSW,248,0.0,0.0,84,0.00,CLR,,0.00,WeatherDisplay:10.37,2013-02-25 08:20:00,
2013-02-25 00:25:00,32.4,28.1,30.11,WSW,248,0.0,0.0,84,0.00,CLR,,0.00,WeatherDisplay:10.37,2013-02-25 08:25:00,
2013-02-25 00:30:00,32.4,28.1,30.11,WSW,248,0.0,0.0,84,0.00,CLR,,0.00,WeatherDisplay:10.37,2013-02-25 08:30:00,
2013-02-25 00:35:00,32.4,28.4,30.11,WSW,248,0.0,0.0,85,0.00,CLR,,0.00,WeatherDisplay:10.37,2013-02-25 08:35:00,
2013-02-25 00:40:00,32.5,28.5,30.10,WSW,248,0.0,0.0,85,0.00,CLR,,0.00,WeatherDisplay:10.37,2013-02-25 08:40:00,
2013-02-25 00:45:00,32.5,28.5,30.10,WSW,248,0.0,0.0,85,0.00,CLR,,0.00,WeatherDisplay:10.37,2013-02-25 08:45:00,
2013-02-25 00:50:00,32.5,28.5,30.10,WSW,248,0.0,0.0,85,0.00,CLR,,0.00,WeatherDisplay:10.37,2013-02-25 08:50:00,
2013-02-25 00:55:00,32.5,28.5,30.10,WSW,248,0.0,0.0,85,0.00,CLR,,0.00,WeatherDisplay:10.37,2013-02-25 08:55:00,
2013-02-25 01:00:00,32.5,28.5,30.10,WSW,248,0.0,0.0,85,0.00,CLR,,0.00,WeatherDisplay:10.37,2013-02-25 09:00:00,
2013-02-25 01:05:00,32.5,28.5,30.10,WSW,248,0.0,0.0,85,0.00,CLR,,0.00,WeatherDisplay:10.37,2013-02-25 09:05:00,
2013-02-25 01:10:00,32.5,28.5,30.10,WSW,248,0.0,0.0,85,0.00,CLR,,0.00,WeatherDisplay:10.37,2013-02-25 09:10:00,
2013-02-25 01:15:00,32.4,28.4,30.10,WSW,248,0.0,0.0,85,0.00,CLR,,0.00,WeatherDisplay:10.37,2013-02-25 09:15:00,
2013-02-25 01:20:00,32.4,28.4,30.10,WSW,248,0.0,0.0,85,0.00,CLR,,0.00,WeatherDisplay:10.37,2013-02-25 09:20:00,
2013-02-25 01:25:00,32.4,28.6,30.09,WSW,248,2.3,2.3,86,0.00,CLR,,0.00,WeatherDisplay:10.37,2013-02-25 09:25:00,
2013-02-25 01:30:00,32.2,28.5,30.09,WSW,248,1.1,0.0,86,0.00,CLR,,0.00,WeatherDisplay:10.37,2013-02-25 09:30:00,
2013-02-25 01:35:00,32.2,28.5,30.08,WSW,248,3.8,4.0,86,0.00,CLR,,0.00,WeatherDisplay:10.37,2013-02-25 09:35:00,
2013-02-25 01:40:00,32.2,28.5,30.08,WSW,248,0.0,0.0,86,0.00,CLR,,0.00,WeatherDisplay:10.37,2013-02-25 09:40:00,
2013-02-25 01:45:00,31.8,28.1,30.08,WSW,248,0.0,0.0,86,0.00,CLR,,0.00,WeatherDisplay:10.37,2013-02-25 09:45:00,
2013-02-25 01:50:00,31.6,27.9,30.07,WSW,248,0.0,0.0,86,0.00,CLR,,0.00,WeatherDisplay:10.37,2013-02-25 09:50:00,
2013-02-25 01:55:00,31.6,27.9,30.07,WSW,248,0.0,0.0,86,0.00,CLR,,0.00,WeatherDisplay:10.37,2013-02-25 09:55:00,
2013-02-25 02:00:00,31.3,27.6,30.07,WSW,248,0.0,0.0,86,0.00,CLR,,0.00,WeatherDisplay:10.37,2013-02-25 10:00:00,
2013-02-25 02:05:00,31.3,27.6,30.06,WSW,248,0.0,0.0,86,0.00,CLR,,0.00,WeatherDisplay:10.37,2013-02-25 10:05:00,
2013-02-25 02:10:00,31.1,27.4,30.07,WSW,248,0.0,0.0,86,0.00,CLR,,0.00,WeatherDisplay:10.37,2013-02-25 10:10:00,
2013-02-25 02:15:00,30.9,27.2,30.07,WSW,248,0.0,0.0,86,0.00,CLR,,0.00,WeatherDisplay:10.37,2013-02-25 10:15:00,
2013-02-25 02:20:00,30.7,27.0,30.07,WSW,248,0.0,0.0,86,0.00,CLR,,0.00,WeatherDisplay:10.37,2013-02-25 10:20:00,
2013-02-25 02:25:00,30.7,27.0,30.07,WSW,248,0.0,0.0,86,0.00,CLR,,0.00,WeatherDisplay:10.37,2013-02-25 10:25:00,
2013-02-25 02:30:00,30.7,27.0,30.06,WSW,248,0.0,0.0,86,0.00,CLR,,0.00,WeatherDisplay:10.37,2013-02-25 10:30:00,
2013-02-25 02:35:00,30.7,27.0,30.06,WSW,248,0.0,0.0,86,0.00,CLR,,0.00,WeatherDisplay:10.37,2013-02-25 10:35:00,
2013-02-25 02:40:00,30.7,27.0,30.06,WSW,248,4.0,4.0,86,0.00,CLR,,0.00,WeatherDisplay:10.37,2013-02-25 10:40:00,
2013-02-25 02:45:00,30.6,26.9,30.06,WSW,248,1.1,1.1,86,0.00,CLR,,0.00,WeatherDisplay:10.37,2013-02-25 10:45:00,
2013-02-25 02:50:00,30.4,26.7,30.05,WSW,248,0.0,0.0,86,0.00,CLR,,0.00,WeatherDisplay:10.37,2013-02-25 10:50:00,
2013-02-25 02:55:00,30.2,26.5,30.05,WSW,248,0.0,0.0,86,0.00,CLR,,0.00,WeatherDisplay:10.37,2013-02-25 10:55:00,
2013-02-25 03:00:00,30.0,26.3,30.05,WSW,248,0.0,0.0,86,0.00,CLR,,0.00,WeatherDisplay:10.37,2013-02-25 11:00:00,
2013-02-25 03:05:00,29.8,26.2,30.04,WSW,248,0.0,0.0,86,0.00,CLR,,0.00,WeatherDisplay:10.37,2013-02-25 11:05:00,
2013-02-25 03:10:00,29.7,26.0,30.04,WSW,248,0.0,0.0,86,0.00,CLR,,0.00,WeatherDisplay:10.37,2013-02-25 11:10:00,
2013-02-25 03:15:00,29.7,26.0,30.04,WSW,248,0.0,0.0,86,0.00,CLR,,0.00,WeatherDisplay:10.37,2013-02-25 11:15:00,
2013-02-25 03:20:00,29.7,26.0,30.04,WSW,248,0.0,0.0,86,0.00,CLR,,0.00,WeatherDisplay:10.37,2013-02-25 11:20:00,
2013-02-25 03:25:00,29.7,26.0,30.03,WSW,248,0.0,0.0,86,0.00,CLR,,0.00,WeatherDisplay:10.37,2013-02-25 11:25:00,
2013-02-25 03:30:00,29.5,25.8,30.03,WSW,248,0.0,0.0,86,0.00,CLR,,0.00,WeatherDisplay:10.37,2013-02-25 11:30:00,
2013-02-25 03:35:00,29.3,25.6,30.03,WSW,248,0.0,0.0,86,0.00,CLR,,0.00,WeatherDisplay:10.37,2013-02-25 11:35:00,
2013-02-25 03:40:00,29.1,25.5,30.03,WSW,248,0.0,0.0,86,0.00,CLR,,0.00,WeatherDisplay:10.37,2013-02-25 11:40:00,
2013-02-25 03:45:00,29.1,25.7,30.03,WSW,248,0.0,0.0,87,0.00,CLR,,0.00,WeatherDisplay:10.37,2013-02-25 11:45:00,
2013-02-25 03:50:00,28.9,25.6,30.03,WSW,248,0.0,0.0,87,0.00,CLR,,0.00,WeatherDisplay:10.37,2013-02-25 11:50:00,
2013-02-25 03:55:00,28.8,25.4,30.03,WSW,248,0.0,0.0,87,0.00,CLR,,0.00,WeatherDisplay:10.37,2013-02-25 11:55:00,
2013-02-25 04:00:00,28.6,25.2,30.02,WSW,248,0.0,0.0,87,0.00,CLR,,0.00,WeatherDisplay:10.37,2013-02-25 12:00:00,
2013-02-25 04:05:00,28.6,25.2,30.01,WSW,248,0.0,0.0,87,0.00,CLR,,0.00,WeatherDisplay:10.37,2013-02-25 12:05:00,
2013-02-25 04:10:00,28.6,25.2,30.02,WSW,248,0.0,0.0,87,0.00,CLR,,0.00,WeatherDisplay:10.37,2013-02-25 12:10:00,
2013-02-25 04:15:00,28.6,25.2,30.01,WSW,248,0.0,0.0,87,0.00,CLR,,0.00,WeatherDisplay:10.37,2013-02-25 12:15:00,
2013-02-25 04:20:00,28.6,25.2,30.01,WSW,248,0.0,0.0,87,0.00,CLR,,0.00,WeatherDisplay:10.37,2013-02-25 12:20:00,
2013-02-25 04:25:00,28.6,25.2,30.01,WSW,248,0.0,0.0,87,0.00,CLR,,0.00,WeatherDisplay:10.37,2013-02-25 12:25:00,
2013-02-25 04:30:00,28.6,25.2,30.01,WSW,248,0.0,0.0,87,0.00,CLR,,0.00,WeatherDisplay:10.37,2013-02-25 12:30:00,
2013-02-25 04:35:00,28.6,25.2,30.01,WSW,248,0.0,0.0,87,0.00,CLR,,0.00,WeatherDisplay:10.37,2013-02-25 12:35:00,
2013-02-25 04:40:00,28.4,25.0,30.00,WSW,248,0.0,0.0,87,0.00,CLR,,0.00,WeatherDisplay:10.37,2013-02-25 12:40:00,
2013-02-25 04:46:00,28.6,25.2,30.00,WSW,248,0.0,0.0,87,0.00,CLR,,0.00,WeatherDisplay:10.37,2013-02-25 12:46:00,
2013-02-25 04:51:00,28.6,25.2,30.00,WSW,248,0.0,0.0,87,0.00,CLR,,0.00,WeatherDisplay:10.37,2013-02-25 12:51:00,
2013-02-25 04:56:00,28.6,25.2,30.00,WSW,248,0.0,0.0,87,0.00,CLR,,0.00,WeatherDisplay:10.37,2013-02-25 12:56:00,
2013-02-25 05:01:00,28.4,25.0,30.00,WSW,248,0.0,0.0,87,0.00,CLR,,0.00,WeatherDisplay:10.37,2013-02-25 13:01:00,
2013-02-25 05:06:00,28.4,25.0,30.00,WSW,248,0.0,0.0,87,0.00,CLR,,0.00,WeatherDisplay:10.37,2013-02-25 13:06:00,
2013-02-25 05:12:00,28.4,25.0,30.00,WSW,248,0.0,0.0,87,0.00,CLR,,0.00,WeatherDisplay:10.37,2013-02-25 13:12:00,
2013-02-25 05:17:00,28.6,25.2,29.99,WSW,248,0.0,0.0,87,0.00,CLR,,0.00,WeatherDisplay:10.37,2013-02-25 13:17:00,
2013-02-25 05:22:00,28.6,25.2,29.99,WSW,248,0.0,0.0,87,0.00,CLR,,0.00,WeatherDisplay:10.37,2013-02-25 13:22:00,
2013-02-25 05:27:00,28.6,25.5,29.98,WSW,248,0.0,0.0,88,0.00,CLR,,0.00,WeatherDisplay:10.37,2013-02-25 13:27:00,
2013-02-25 05:32:00,28.6,25.5,29.99,SSW,202,0.0,0.0,88,0.00,CLR,,0.00,WeatherDisplay:10.37,2013-02-25 13:32:00,
2013-02-25 05:37:00,28.8,25.7,29.99,SSW,202,0.0,0.0,88,0.00,CLR,,0.00,WeatherDisplay:10.37,2013-02-25 13:37:00,
2013-02-25 05:42:00,28.8,25.7,29.98,SSW,202,0.0,0.0,88,0.00,CLR,,0.00,WeatherDisplay:10.37,2013-02-25 13:42:00,
2013-02-25 05:47:00,28.9,25.8,29.98,SSW,202,0.0,0.0,88,0.00,CLR,,0.00,WeatherDisplay:10.37,2013-02-25 13:47:00,
2013-02-25 05:52:00,29.1,26.0,29.99,SSW,202,0.0,0.0,88,0.00,CLR,,0.00,WeatherDisplay:10.37,2013-02-25 13:52:00,
2013-02-25 05:57:00,29.1,26.0,29.99,WSW,248,0.0,0.0,88,0.00,CLR,,0.00,WeatherDisplay:10.37,2013-02-25 13:57:00,
2013-02-25 06:02:00,29.3,26.2,29.99,WSW,248,0.0,0.0,88,0.00,CLR,,0.00,WeatherDisplay:10.37,2013-02-25 14:02:00,
2013-02-25 06:07:00,29.3,26.2,30.00,WSW,248,0.0,0.0,88,0.00,CLR,,0.00,WeatherDisplay:10.37,2013-02-25 14:07:00,
2013-02-25 06:12:00,29.3,26.2,30.00,WSW,248,0.0,0.0,88,0.00,CLR,,0.00,WeatherDisplay:10.37,2013-02-25 14:12:00,
2013-02-25 06:17:00,29.5,26.6,30.00,WSW,248,0.0,0.0,89,0.00,CLR,,0.00,WeatherDisplay:10.37,2013-02-25 14:17:00,
2013-02-25 06:22:00,29.5,26.6,30.00,WSW,248,0.0,0.0,89,0.00,CLR,,0.00,WeatherDisplay:10.37,2013-02-25 14:22:00,
2013-02-25 06:27:00,29.5,26.6,30.00,WSW,248,0.0,0.0,89,0.00,CLR,,0.00,WeatherDisplay:10.37,2013-02-25 14:27:00,
2013-02-25 06:32:00,29.7,26.8,30.00,WSW,248,0.0,0.0,89,0.00,CLR,,0.00,WeatherDisplay:10.37,2013-02-25 14:32:00,
2013-02-25 06:37:00,29.7,26.8,30.00,WSW,248,0.0,0.0,89,0.00,CLR,,0.00,WeatherDisplay:10.37,2013-02-25 14:37:00,
2013-02-25 06:42:00,29.8,27.0,30.00,South,180,0.0,0.0,89,0.00,CLR,,0.00,WeatherDisplay:10.37,2013-02-25 14:42:00,
2013-02-25 06:47:00,30.0,27.2,30.00,South,180,0.0,0.0,89,0.00,CLR,,0.00,WeatherDisplay:10.37,2013-02-25 14:47:00,
2013-02-25 06:52:00,30.0,27.2,30.00,SSE,158,0.0,0.0,89,0.00,CLR,,0.00,WeatherDisplay:10.37,2013-02-25 14:52:00,
2013-02-25 06:57:00,30.0,27.2,29.99,SSE,158,0.0,0.0,89,0.00,CLR,,0.00,WeatherDisplay:10.37,2013-02-25 14:57:00,
2013-02-25 07:02:00,30.0,27.2,29.99,SSE,158,0.0,0.0,89,0.00,CLR,,0.00,WeatherDisplay:10.37,2013-02-25 15:02:00,
2013-02-25 07:07:00,30.2,27.3,29.99,SSE,158,0.0,0.0,89,0.00,CLR,,0.00,WeatherDisplay:10.37,2013-02-25 15:07:00,
2013-02-25 07:12:00,30.4,27.5,30.00,SSE,158,0.0,0.0,89,0.00,CLR,,0.00,WeatherDisplay:10.37,2013-02-25 15:12:00,
2013-02-25 07:17:00,30.4,27.5,29.99,SSE,158,0.0,0.0,89,0.00,CLR,,0.00,WeatherDisplay:10.37,2013-02-25 15:17:00,
2013-02-25 07:22:00,30.4,27.5,29.99,SSE,158,0.0,0.0,89,0.00,CLR,,0.00,WeatherDisplay:10.37,2013-02-25 15:22:00,
2013-02-25 07:27:00,30.6,28.0,29.99,SSE,158,0.0,0.0,90,0.00,CLR,,0.00,WeatherDisplay:10.37,2013-02-25 15:27:00,
2013-02-25 07:32:00,30.6,28.0,29.99,SSE,158,0.0,0.0,90,0.00,CLR,,0.00,WeatherDisplay:10.37,2013-02-25 15:32:00,
2013-02-25 07:37:00,30.6,28.0,30.00,SSE,158,0.0,0.0,90,0.00,CLR,,0.00,WeatherDisplay:10.37,2013-02-25 15:37:00,
2013-02-25 07:42:00,30.7,28.2,30.00,SSE,158,0.0,0.0,90,0.00,CLR,,0.00,WeatherDisplay:10.37,2013-02-25 15:42:00,
2013-02-25 07:47:00,30.9,28.3,30.00,SSE,158,0.0,0.0,90,0.00,CLR,,0.00,WeatherDisplay:10.37,2013-02-25 15:47:00,
2013-02-25 07:52:00,30.9,28.3,30.00,SSE,158,0.0,0.0,90,0.00,CLR,,0.00,WeatherDisplay:10.37,2013-02-25 15:52:00,
2013-02-25 07:57:00,30.9,28.3,30.00,SSW,202,0.0,0.0,90,0.00,CLR,,0.00,WeatherDisplay:10.37,2013-02-25 15:57:00,
2013-02-25 08:02:00,31.1,28.5,30.00,SW,225,0.0,0.0,90,0.00,CLR,,0.00,WeatherDisplay:10.37,2013-02-25 16:02:00,
2013-02-25 08:07:00,31.1,28.5,30.00,SW,225,0.0,0.0,90,0.00,CLR,,0.00,WeatherDisplay:10.37,2013-02-25 16:07:00,
2013-02-25 08:12:00,31.1,28.5,30.00,WSW,248,0.0,0.0,90,0.00,CLR,,0.00,WeatherDisplay:10.37,2013-02-25 16:12:00,
2013-02-25 08:17:00,31.1,28.5,30.00,WSW,248,0.0,0.0,90,0.00,CLR,,0.00,WeatherDisplay:10.37,2013-02-25 16:17:00,
2013-02-25 08:22:00,31.1,28.5,30.00,WSW,248,0.0,0.0,90,0.00,CLR,,0.00,WeatherDisplay:10.37,2013-02-25 16:22:00,
2013-02-25 08:27:00,31.3,28.7,30.00,WSW,248,0.0,0.0,90,0.00,CLR,,0.00,WeatherDisplay:10.37,2013-02-25 16:27:00,
2013-02-25 08:32:00,31.3,28.7,30.01,WSW,248,0.0,0.0,90,0.00,CLR,,0.00,WeatherDisplay:10.37,2013-02-25 16:32:00,
2013-02-25 08:37:00,31.3,28.7,30.01,WSW,248,0.0,0.0,90,0.00,CLR,,0.00,WeatherDisplay:10.37,2013-02-25 16:37:00,
2013-02-25 08:42:00,31.3,28.7,30.01,WSW,248,0.0,0.0,90,0.00,CLR,,0.00,WeatherDisplay:10.37,2013-02-25 16:42:00,
2013-02-25 08:47:00,31.5,28.9,30.01,WSW,248,0.0,0.0,90,0.00,CLR,,0.00,WeatherDisplay:10.37,2013-02-25 16:47:00,
2013-02-25 08:52:00,31.6,29.0,30.01,WSW,248,0.0,0.0,90,0.00,CLR,,0.00,WeatherDisplay:10.37,2013-02-25 16:52:00,
2013-02-25 08:57:00,31.6,29.0,30.01,SSE,158,4.2,4.2,90,0.00,CLR,,0.00,WeatherDisplay:10.37,2013-02-25 16:57:00,
2013-02-25 09:02:00,31.6,29.0,30.02,SSE,158,0.0,0.0,90,0.00,CLR,,0.00,WeatherDisplay:10.37,2013-02-25 17:02:00,
2013-02-25 09:07:00,31.6,29.0,30.02,SSE,158,0.0,0.0,90,0.00,CLR,,0.00,WeatherDisplay:10.37,2013-02-25 17:07:00,
2013-02-25 09:12:00,31.8,29.2,30.02,WSW,248,0.0,0.0,90,0.00,CLR,,0.00,WeatherDisplay:10.37,2013-02-25 17:12:00,
2013-02-25 09:17:00,31.8,29.2,30.02,NW,315,0.0,0.0,90,0.00,CLR,,0.00,WeatherDisplay:10.37,2013-02-25 17:17:00,
2013-02-25 09:22:00,31.8,29.2,30.02,NNW,338,0.0,0.0,90,0.00,CLR,,0.00,WeatherDisplay:10.37,2013-02-25 17:22:00,
2013-02-25 09:27:00,32.0,29.4,30.02,NNE,22,0.0,0.0,90,0.00,CLR,,0.00,WeatherDisplay:10.37,2013-02-25 17:27:00,
2013-02-25 09:32:00,32.2,29.6,30.01,SE,135,6.9,6.9,90,0.00,CLR,,0.00,WeatherDisplay:10.37,2013-02-25 17:32:00,
2013-02-25 09:37:00,32.5,29.9,30.01,SSE,158,5.8,5.8,90,0.00,CLR,,0.00,WeatherDisplay:10.37,2013-02-25 17:37:00,
2013-02-25 09:42:00,32.7,30.1,30.01,South,180,6.7,6.7,90,0.00,CLR,,0.00,WeatherDisplay:10.37,2013-02-25 17:42:00,
2013-02-25 09:47:00,33.1,30.5,30.00,SSE,158,4.6,4.6,90,0.00,CLR,,0.00,WeatherDisplay:10.37,2013-02-25 17:47:00,
2013-02-25 09:52:00,33.4,30.8,30.01,SE,135,3.5,3.5,90,0.00,CLR,,0.00,WeatherDisplay:10.37,2013-02-25 17:52:00,
2013-02-25 09:57:00,33.6,31.0,30.01,SSE,158,3.5,3.6,90,0.00,CLR,,0.00,WeatherDisplay:10.37,2013-02-25 17:57:00,
2013-02-25 10:02:00,34.0,31.4,30.01,SE,135,5.8,5.8,90,0.00,CLR,,0.00,WeatherDisplay:10.37,2013-02-25 18:02:00,
2013-02-25 10:07:00,34.3,31.7,30.01,SE,135,5.8,5.8,90,0.00,CLR,,0.00,WeatherDisplay:10.37,2013-02-25 18:07:00,
2013-02-25 10:12:00,34.3,32.0,30.01,SSE,158,5.8,5.8,91,0.00,CLR,,0.00,WeatherDisplay:10.37,2013-02-25 18:12:00,
2013-02-25 10:17:00,34.7,32.1,30.01,SE,135,5.8,5.8,90,0.00,CLR,,0.00,WeatherDisplay:10.37,2013-02-25 18:17:00,
2013-02-25 10:22:00,34.9,32.2,30.01,SE,135,6.0,6.0,90,0.00,CLR,,0.00,WeatherDisplay:10.37,2013-02-25 18:22:00,
2013-02-25 10:27:00,35.4,32.8,30.01,SE,135,1.1,1.1,90,0.00,CLR,,0.00,WeatherDisplay:10.37,2013-02-25 18:27:00,
2013-02-25 10:32:00,35.4,32.8,30.01,SE,135,0.0,0.0,90,0.00,CLR,,0.00,WeatherDisplay:10.37,2013-02-25 18:32:00,
2013-02-25 10:37:00,35.8,33.1,30.01,ESE,112,3.5,3.5,90,0.00,CLR,,0.00,WeatherDisplay:10.37,2013-02-25 18:37:00,
2013-02-25 10:42:00,36.0,33.3,30.01,NE,45,0.0,0.0,90,0.00,CLR,,0.00,WeatherDisplay:10.37,2013-02-25 18:42:00,
2013-02-25 10:47:00,36.1,33.5,30.01,South,180,3.6,3.6,90,0.00,CLR,,0.00,WeatherDisplay:10.37,2013-02-25 18:47:00,
2013-02-25 10:52:00,36.3,33.7,30.00,South,180,8.1,8.1,90,0.00,CLR,,0.00,WeatherDisplay:10.37,2013-02-25 18:52:00,
2013-02-25 10:57:00,36.7,33.7,30.00,South,180,9.2,9.2,89,0.00,CLR,,0.00,WeatherDisplay:10.37,2013-02-25 18:57:00,
2013-02-25 11:02:00,36.9,33.9,30.00,SSE,158,5.8,5.8,89,0.00,CLR,,0.00,WeatherDisplay:10.37,2013-02-25 19:02:00,
2013-02-25 11:07:00,37.2,34.3,30.01,SE,135,5.8,5.8,89,0.00,CLR,,0.00,WeatherDisplay:10.37,2013-02-25 19:07:00,
2013-02-25 11:12:00,37.4,34.5,30.00,ESE,112,0.0,0.0,89,0.00,CLR,,0.00,WeatherDisplay:10.37,2013-02-25 19:12:00,
2013-02-25 11:17:00,37.8,34.8,30.01,East,90,1.1,1.1,89,0.00,CLR,,0.00,WeatherDisplay:10.37,2013-02-25 19:17:00,
2013-02-25 11:22:00,37.9,34.7,30.01,NNE,22,8.1,8.1,88,0.00,CLR,,0.00,WeatherDisplay:10.37,2013-02-25 19:22:00,
2013-02-25 11:27:00,38.5,35.2,30.00,NNE,22,3.1,3.1,88,0.00,CLR,,0.00,WeatherDisplay:10.37,2013-02-25 19:27:00,
2013-02-25 11:32:00,38.8,35.6,30.01,NNE,22,0.2,0.2,88,0.00,CLR,,0.00,WeatherDisplay:10.37,2013-02-25 19:32:00,
2013-02-25 11:37:00,39.4,35.8,30.00,NNW,338,3.5,3.5,87,0.00,CLR,,0.00,WeatherDisplay:10.37,2013-02-25 19:37:00,
2013-02-25 11:42:00,39.9,36.4,30.00,NW,315,3.5,3.5,87,0.00,CLR,,0.00,WeatherDisplay:10.37,2013-02-25 19:42:00,
2013-02-25 11:47:00,40.3,36.4,29.99,West,270,5.8,5.8,86,0.00,CLR,,0.00,WeatherDisplay:10.37,2013-02-25 19:47:00,
2013-02-25 11:52:00,40.5,36.6,29.99,SW,225,2.3,2.3,86,0.00,CLR,,0.00,WeatherDisplay:10.37,2013-02-25 19:52:00,
2013-02-25 11:57:00,41.0,36.8,29.99,NNE,22,4.6,4.6,85,0.00,CLR,,0.00,WeatherDisplay:10.37,2013-02-25 19:57:00,
2013-02-25 12:02:00,41.0,36.8,29.99,NNE,22,6.9,6.9,85,0.00,CLR,,0.00,WeatherDisplay:10.37,2013-02-25 20:02:00,
2013-02-25 12:07:00,41.2,36.7,29.99,NNE,22,0.0,0.0,84,0.00,CLR,,0.00,WeatherDisplay:10.37,2013-02-25 20:07:00,
2013-02-25 12:12:00,41.2,36.4,29.98,SE,135,0.0,0.7,83,0.00,CLR,,0.00,WeatherDisplay:10.37,2013-02-25 20:12:00,
2013-02-25 12:17:00,41.2,36.4,29.97,ESE,112,3.5,3.5,83,0.00,CLR,,0.00,WeatherDisplay:10.37,2013-02-25 20:17:00,
2013-02-25 12:23:00,41.4,36.3,29.97,ESE,112,3.8,3.8,82,0.00,CLR,,0.00,WeatherDisplay:10.37,2013-02-25 20:23:00,
2013-02-25 12:28:00,41.7,36.6,29.97,SSE,158,0.0,0.0,82,0.00,CLR,,0.00,WeatherDisplay:10.37,2013-02-25 20:28:00,
2013-02-25 12:33:00,42.4,37.0,29.97,WSW,248,1.6,1.6,81,0.00,CLR,,0.00,WeatherDisplay:10.37,2013-02-25 20:33:00,
2013-02-25 12:38:00,42.6,36.9,29.96,South,180,9.2,9.2,80,0.00,CLR,,0.00,WeatherDisplay:10.37,2013-02-25 20:38:00,
2013-02-25 12:43:00,43.2,37.1,29.96,SSE,158,8.1,8.1,79,0.00,CLR,,0.00,WeatherDisplay:10.37,2013-02-25 20:43:00,
2013-02-25 12:48:00,43.5,37.1,29.96,South,180,10.4,10.4,78,0.00,CLR,,0.00,WeatherDisplay:10.37,2013-02-25 20:48:00,
2013-02-25 12:53:00,43.9,37.5,29.95,SSW,202,9.2,9.2,78,0.00,CLR,,0.00,WeatherDisplay:10.37,2013-02-25 20:53:00,
2013-02-25 12:58:00,44.6,37.8,29.95,SSW,202,11.5,11.5,77,0.00,CLR,,0.00,WeatherDisplay:10.37,2013-02-25 20:58:00,
2013-02-25 13:03:00,45.0,37.8,29.95,SSE,158,6.9,7.9,76,0.00,CLR,,0.00,WeatherDisplay:10.37,2013-02-25 21:03:00,
2013-02-25 13:08:00,45.3,37.9,29.95,SSW,202,2.3,2.3,75,0.00,CLR,,0.00,WeatherDisplay:10.37,2013-02-25 21:08:00,
2013-02-25 13:13:00,45.7,37.9,29.94,SE,135,11.5,11.5,74,0.00,CLR,,0.00,WeatherDisplay:10.37,2013-02-25 21:13:00,
2013-02-25 13:18:00,46.0,37.5,29.94,SSE,158,7.4,7.4,72,0.00,CLR,,0.00,WeatherDisplay:10.37,2013-02-25 21:18:00,
2013-02-25 13:23:00,46.2,37.3,29.94,South,180,6.9,6.9,71,0.00,CLR,,0.00,WeatherDisplay:10.37,2013-02-25 21:23:00,
2013-02-25 13:28:00,46.6,37.7,29.94,South,180,6.9,6.9,71,0.00,CLR,,0.00,WeatherDisplay:10.37,2013-02-25 21:28:00,
2013-02-25 13:33:00,46.8,36.8,29.94,SW,225,7.4,7.4,68,0.00,CLR,,0.00,WeatherDisplay:10.37,2013-02-25 21:33:00,
2013-02-25 13:38:00,47.1,35.6,29.95,WNW,292,12.7,12.7,64,0.00,CLR,,0.00,WeatherDisplay:10.37,2013-02-25 21:38:00,
2013-02-25 13:43:00,46.9,35.4,29.95,NNW,338,17.4,17.4,64,0.00,CLR,,0.00,WeatherDisplay:10.37,2013-02-25 21:43:00,
2013-02-25 13:48:00,46.8,36.0,29.94,North,0,11.5,11.5,66,0.00,CLR,,0.00,WeatherDisplay:10.37,2013-02-25 21:48:00,
2013-02-25 13:53:00,46.8,36.0,29.94,NNW,338,12.7,12.8,66,0.00,CLR,,0.00,WeatherDisplay:10.37,2013-02-25 21:53:00,
2013-02-25 13:58:00,46.9,36.2,29.94,NNE,22,3.5,3.5,66,0.00,CLR,,0.00,WeatherDisplay:10.37,2013-02-25 21:58:00,
2013-02-25 14:03:00,46.9,35.8,29.94,WSW,248,2.3,2.3,65,0.00,CLR,,0.00,WeatherDisplay:10.37,2013-02-25 22:03:00,
2013-02-25 14:08:00,47.1,35.6,29.95,NNW,338,9.4,9.4,64,0.02,RA,,0.02,WeatherDisplay:10.37,2013-02-25 22:08:00,
2013-02-25 14:13:00,47.5,35.9,29.95,North,0,8.1,8.1,64,0.02,RA,,0.02,WeatherDisplay:10.37,2013-02-25 22:13:00,
2013-02-25 14:18:00,47.8,36.2,29.94,WNW,292,8.1,8.1,64,0.02,,,0.02,WeatherDisplay:10.37,2013-02-25 22:18:00,
2013-02-25 14:23:00,48.0,35.2,29.95,North,0,11.5,11.5,61,0.02,CLR,,0.02,WeatherDisplay:10.37,2013-02-25 22:23:00,
2013-02-25 14:28:00,47.5,34.3,29.95,WNW,292,11.5,11.5,60,0.02,CLR,,0.02,WeatherDisplay:10.37,2013-02-25 22:28:00,
2013-02-25 14:33:00,47.1,33.9,29.95,NNW,338,15.2,15.2,60,0.02,CLR,,0.02,WeatherDisplay:10.37,2013-02-25 22:33:00,
2013-02-25 14:38:00,46.8,33.6,29.96,NW,315,17.4,17.4,60,0.02,CLR,,0.02,WeatherDisplay:10.37,2013-02-25 22:38:00,
2013-02-25 14:43:00,45.5,33.2,29.96,NNW,338,17.4,17.4,62,0.02,CLR,,0.02,WeatherDisplay:10.37,2013-02-25 22:43:00,
2013-02-25 14:48:00,45.0,33.5,29.96,NNW,338,15.0,15.0,64,0.02,CLR,,0.02,WeatherDisplay:10.37,2013-02-25 22:48:00,
2013-02-25 14:53:00,44.6,33.2,29.96,North,0,8.1,8.3,64,0.02,CLR,,0.02,WeatherDisplay:10.37,2013-02-25 22:53:00,
2013-02-25 14:58:00,44.4,33.8,29.96,North,0,13.8,13.8,66,0.02,CLR,,0.02,WeatherDisplay:10.37,2013-02-25 22:58:00,
2013-02-25 15:03:00,44.8,34.1,29.97,NNW,338,12.7,12.7,66,0.02,CLR,,0.02,WeatherDisplay:10.37,2013-02-25 23:03:00,
2013-02-25 15:08:00,44.8,34.1,29.97,WNW,292,8.1,8.1,66,0.00,CLR,,0.02,WeatherDisplay:10.37,2013-02-25 23:08:00,
2013-02-25 15:13:00,44.4,34.1,29.97,NNW,338,9.2,9.2,67,0.00,CLR,,0.02,WeatherDisplay:10.37,2013-02-25 23:13:00,
2013-02-25 15:18:00,44.2,34.3,29.96,NNW,338,13.9,13.9,68,0.00,CLR,,0.02,WeatherDisplay:10.37,2013-02-25 23:18:00,
2013-02-25 15:23:00,43.9,34.0,29.95,NNE,22,10.4,10.4,68,0.00,CLR,,0.02,WeatherDisplay:10.37,2013-02-25 23:23:00,
2013-02-25 15:28:00,44.4,34.1,29.96,WNW,292,8.1,8.1,67,0.00,CLR,,0.02,WeatherDisplay:10.37,2013-02-25 23:28:00,
2013-02-25 15:33:00,45.0,33.9,29.97,West,270,3.8,3.8,65,0.00,CLR,,0.02,WeatherDisplay:10.37,2013-02-25 23:33:00,
2013-02-25 15:38:00,45.1,34.5,29.97,NW,315,8.1,8.1,66,0.00,CLR,,0.02,WeatherDisplay:10.37,2013-02-25 23:38:00,
2013-02-25 15:43:00,45.1,34.5,29.97,NW,315,8.1,8.1,66,0.00,CLR,,0.02,WeatherDisplay:10.37,2013-02-25 23:43:00,
2013-02-25 15:48:00,45.0,35.0,29.97,NNW,338,11.5,11.5,68,0.00,CLR,,0.02,WeatherDisplay:10.37,2013-02-25 23:48:00,
2013-02-25 15:53:00,45.0,35.0,29.98,NNW,338,6.9,6.9,68,0.00,CLR,,0.02,WeatherDisplay:10.37,2013-02-25 23:53:00,
2013-02-25 15:58:00,44.8,34.9,29.97,North,0,8.1,8.1,68,0.00,CLR,,0.02,WeatherDisplay:10.37,2013-02-25 23:58:00,
2013-02-25 16:03:00,44.6,35.1,29.97,NNE,22,9.2,9.2,69,0.00,CLR,,0.02,WeatherDisplay:10.37,2013-02-26 00:03:00,
2013-02-25 16:08:00,44.8,35.2,29.97,NNW,338,10.7,10.7,69,0.00,CLR,,0.02,WeatherDisplay:10.37,2013-02-26 00:08:00,
2013-02-25 16:13:00,44.6,35.1,29.97,NW,315,11.5,11.5,69,0.00,CLR,,0.02,WeatherDisplay:10.37,2013-02-26 00:13:00,
2013-02-25 16:18:00,44.4,34.9,29.98,NNE,22,6.9,6.9,69,0.00,CLR,,0.02,WeatherDisplay:10.37,2013-02-26 00:18:00,
2013-02-25 16:23:00,44.4,34.9,29.98,NE,45,5.8,5.8,69,0.00,CLR,,0.02,WeatherDisplay:10.37,2013-02-26 00:23:00,
2013-02-25 16:28:00,44.6,34.7,29.98,NNE,22,4.6,4.6,68,0.00,CLR,,0.02,WeatherDisplay:10.37,2013-02-26 00:28:00,
2013-02-25 16:33:00,44.6,34.7,29.97,WNW,292,5.8,5.8,68,0.00,CLR,,0.02,WeatherDisplay:10.37,2013-02-26 00:33:00,
2013-02-25 16:38:00,44.6,34.7,29.97,North,0,3.8,3.8,68,0.00,CLR,,0.02,WeatherDisplay:10.37,2013-02-26 00:38:00,
2013-02-25 16:43:00,44.4,34.5,29.98,NNE,22,3.5,3.5,68,0.00,CLR,,0.02,WeatherDisplay:10.37,2013-02-26 00:43:00,
2013-02-25 16:48:00,44.4,34.5,29.98,NNW,338,4.0,4.0,68,0.00,CLR,,0.02,WeatherDisplay:10.37,2013-02-26 00:48:00,
2013-02-25 16:53:00,44.2,34.3,29.98,NNW,338,0.0,0.0,68,0.00,CLR,,0.02,WeatherDisplay:10.37,2013-02-26 00:53:00,
2013-02-25 16:58:00,44.1,34.5,29.98,NNW,338,0.0,0.0,69,0.00,CLR,,0.02,WeatherDisplay:10.37,2013-02-26 00:58:00,
2013-02-25 17:03:00,43.9,34.4,29.98,West,270,2.3,2.3,69,0.00,CLR,,0.02,WeatherDisplay:10.37,2013-02-26 01:03:00,
2013-02-25 17:08:00,43.7,34.2,29.98,SW,225,0.0,0.0,69,0.00,CLR,,0.02,WeatherDisplay:10.37,2013-02-26 01:08:00,
2013-02-25 17:13:00,43.3,33.8,29.99,WSW,248,0.0,0.0,69,0.00,CLR,,0.02,WeatherDisplay:10.37,2013-02-26 01:13:00,
2013-02-25 17:18:00,43.2,33.7,29.98,WSW,248,0.0,0.0,69,0.00,CLR,,0.02,WeatherDisplay:10.37,2013-02-26 01:18:00,
2013-02-25 17:23:00,43.0,33.9,29.99,WSW,248,0.0,0.0,70,0.00,CLR,,0.02,WeatherDisplay:10.37,2013-02-26 01:23:00,
2013-02-25 17:28:00,42.6,33.5,29.99,NNE,22,0.0,0.0,70,0.00,CLR,,0.02,WeatherDisplay:10.37,2013-02-26 01:28:00,
2013-02-25 17:33:00,42.6,33.5,29.99,NNE,22,0.0,0.0,70,0.00,CLR,,0.02,WeatherDisplay:10.37,2013-02-26 01:33:00,
2013-02-25 17:38:00,42.4,33.3,30.00,NNE,22,0.0,0.0,70,0.00,CLR,,0.02,WeatherDisplay:10.37,2013-02-26 01:38:00,
2013-02-25 17:43:00,42.1,33.0,30.00,ENE,68,1.1,1.1,70,0.00,CLR,,0.02,WeatherDisplay:10.37,2013-02-26 01:43:00,
2013-02-25 17:48:00,41.7,33.0,30.00,ENE,68,0.0,0.0,71,0.00,CLR,,0.02,WeatherDisplay:10.37,2013-02-26 01:48:00,
2013-02-25 17:53:00,41.5,32.8,30.00,ENE,68,0.0,0.0,71,0.00,CLR,,0.02,WeatherDisplay:10.37,2013-02-26 01:53:00,
2013-02-25 17:58:00,41.2,32.5,30.01,ESE,112,4.6,4.6,71,0.00,CLR,,0.02,WeatherDisplay:10.37,2013-02-26 01:58:00,
2013-02-25 18:03:00,41.0,32.3,30.01,ESE,112,3.5,3.5,71,0.00,CLR,,0.02,WeatherDisplay:10.37,2013-02-26 02:03:00,
2013-02-25 18:08:00,40.8,32.5,30.01,ESE,112,2.7,2.7,72,0.00,CLR,,0.02,WeatherDisplay:10.37,2013-02-26 02:08:00,
2013-02-25 18:13:00,40.3,32.0,30.01,SSE,158,8.1,8.1,72,0.00,CLR,,0.02,WeatherDisplay:10.37,2013-02-26 02:13:00,
2013-02-25 18:18:00,40.5,31.8,30.02,SE,135,4.6,4.6,71,0.00,CLR,,0.02,WeatherDisplay:10.37,2013-02-26 02:18:00,
2013-02-25 18:23:00,40.6,31.6,30.02,West,270,4.6,4.6,70,0.00,CLR,,0.02,WeatherDisplay:10.37,2013-02-26 02:23:00,
2013-02-25 18:28:00,40.6,31.6,30.02,West,270,0.0,0.0,70,0.00,CLR,,0.02,WeatherDisplay:10.37,2013-02-26 02:28:00,
2013-02-25 18:33:00,40.6,31.6,30.02,WSW,248,0.0,0.0,70,0.00,CLR,,0.02,WeatherDisplay:10.37,2013-02-26 02:33:00,
2013-02-25 18:38:00,40.3,31.6,30.02,WSW,248,2.3,2.3,71,0.00,CLR,,0.02,WeatherDisplay:10.37,2013-02-26 02:38:00,
2013-02-25 18:43:00,40.1,31.4,30.03,West,270,1.3,1.3,71,0.00,CLR,,0.02,WeatherDisplay:10.37,2013-02-26 02:43:00,
2013-02-25 18:48:00,39.9,31.3,30.03,WSW,248,0.0,0.0,71,0.00,CLR,,0.02,WeatherDisplay:10.37,2013-02-26 02:48:00,
2013-02-25 18:53:00,39.9,31.3,30.03,WSW,248,0.0,0.0,71,0.00,CLR,,0.02,WeatherDisplay:10.37,2013-02-26 02:53:00,
2013-02-25 18:58:00,39.7,31.1,30.03,SW,225,0.0,0.0,71,0.00,CLR,,0.02,WeatherDisplay:10.37,2013-02-26 02:58:00,
2013-02-25 19:03:00,39.6,31.3,30.03,SW,225,0.0,0.0,72,0.00,CLR,,0.02,WeatherDisplay:10.37,2013-02-26 03:03:00,
2013-02-25 19:08:00,39.4,31.1,30.03,SW,225,0.0,0.0,72,0.00,CLR,,0.02,WeatherDisplay:10.37,2013-02-26 03:08:00,
2013-02-25 19:13:00,39.4,31.1,30.04,SW,225,0.0,0.0,72,0.00,CLR,,0.02,WeatherDisplay:10.37,2013-02-26 03:13:00,
2013-02-25 19:18:00,39.2,30.9,30.04,SW,225,0.0,0.0,72,0.00,CLR,,0.02,WeatherDisplay:10.37,2013-02-26 03:18:00,
2013-02-25 19:23:00,39.0,30.8,30.04,SW,225,0.0,0.0,72,0.00,CLR,,0.02,WeatherDisplay:10.37,2013-02-26 03:23:00,
2013-02-25 19:28:00,39.0,31.1,30.04,West,270,2.3,2.3,73,0.00,CLR,,0.02,WeatherDisplay:10.37,2013-02-26 03:28:00,
2013-02-25 19:33:00,38.8,31.3,30.04,West,270,0.0,0.0,74,0.00,CLR,,0.02,WeatherDisplay:10.37,2013-02-26 03:33:00,
2013-02-25 19:38:00,38.8,31.3,30.04,West,270,0.0,0.0,74,0.00,CLR,,0.02,WeatherDisplay:10.37,2013-02-26 03:38:00,
2013-02-25 19:43:00,38.8,31.3,30.04,WSW,248,0.0,0.0,74,0.00,CLR,,0.02,WeatherDisplay:10.37,2013-02-26 03:43:00,
2013-02-25 19:48:00,38.8,31.3,30.04,WSW,248,0.0,0.0,74,0.00,CLR,,0.02,WeatherDisplay:10.37,2013-02-26 03:48:00,
2013-02-25 19:53:00,39.0,31.4,30.05,WSW,248,3.5,3.5,74,0.00,CLR,,0.02,WeatherDisplay:10.37,2013-02-26 03:53:00,
2013-02-25 19:58:00,38.8,31.3,30.06,WSW,248,4.7,4.7,74,0.00,CLR,,0.02,WeatherDisplay:10.37,2013-02-26 03:58:00,
2013-02-25 20:03:00,38.8,31.3,30.06,ENE,68,1.1,1.1,74,0.00,CLR,,0.02,WeatherDisplay:10.37,2013-02-26 04:03:00,
2013-02-25 20:08:00,38.8,31.6,30.06,WSW,248,7.4,0.0,75,0.00,CLR,,0.02,WeatherDisplay:10.37,2013-02-26 04:08:00,
2013-02-25 20:13:00,38.8,31.6,30.07,East,90,9.2,9.2,75,0.00,CLR,,0.02,WeatherDisplay:10.37,2013-02-26 04:13:00,
2013-02-25 20:18:00,38.8,31.3,30.07,NW,315,15.2,15.2,74,0.00,CLR,,0.02,WeatherDisplay:10.37,2013-02-26 04:18:00,
2013-02-25 20:23:00,39.6,31.6,30.08,NNW,338,14.5,14.5,73,0.00,CLR,,0.02,WeatherDisplay:10.37,2013-02-26 04:23:00,
2013-02-25 20:28:00,39.6,32.0,30.08,NNW,338,11.5,11.5,74,0.00,CLR,,0.02,WeatherDisplay:10.37,2013-02-26 04:28:00,
2013-02-25 20:33:00,39.4,32.1,30.08,North,0,11.5,11.5,75,0.00,CLR,,0.02,WeatherDisplay:10.37,2013-02-26 04:33:00,
2013-02-25 20:38:00,39.0,32.1,30.08,NE,45,10.4,10.5,76,0.00,CLR,,0.02,WeatherDisplay:10.37,2013-02-26 04:38:00,
2013-02-25 20:43:00,38.5,31.9,30.08,NNE,22,7.4,7.4,77,0.00,CLR,,0.02,WeatherDisplay:10.37,2013-02-26 04:43:00,
2013-02-25 20:48:00,38.3,31.7,30.09,NNE,22,8.3,8.3,77,0.00,CLR,,0.02,WeatherDisplay:10.37,2013-02-26 04:48:00,
2013-02-25 20:53:00,37.9,31.7,30.09,NNW,338,6.5,0.0,78,0.00,CLR,,0.02,WeatherDisplay:10.37,2013-02-26 04:53:00,
2013-02-25 20:58:00,37.8,31.8,30.10,NNE,22,6.9,6.9,79,0.00,CLR,,0.02,WeatherDisplay:10.37,2013-02-26 04:58:00,
2013-02-25 21:00:00,37.8,31.5,30.09,NNE,22,6.9,6.9,78,0.00,CLR,,0.02,WeatherDisplay:10.37,2013-02-26 05:00:00,
2013-02-25 21:05:00,37.6,31.7,30.10,NNE,22,0.0,0.0,79,0.00,CLR,,0.02,WeatherDisplay:10.37,2013-02-26 05:05:00,
2013-02-25 21:10:00,37.6,31.7,30.10,NNE,22,0.0,0.0,79,0.00,CLR,,0.02,WeatherDisplay:10.37,2013-02-26 05:10:00,
2013-02-25 21:15:00,37.6,32.0,30.09,ESE,112,3.5,3.5,80,0.00,CLR,,0.02,WeatherDisplay:10.37,2013-02-26 05:15:00,
2013-02-25 21:20:00,37.6,32.0,30.09,SSE,158,7.4,7.4,80,0.00,CLR,,0.02,WeatherDisplay:10.37,2013-02-26 05:20:00,
2013-02-25 21:25:00,37.6,32.0,30.10,SE,135,4.6,4.9,80,0.00,CLR,,0.02,WeatherDisplay:10.37,2013-02-26 05:25:00,
2013-02-25 21:30:00,37.2,31.6,30.10,SSE,158,1.1,1.1,80,0.00,CLR,,0.02,WeatherDisplay:10.37,2013-02-26 05:30:00,
2013-02-25 21:35:00,37.2,31.9,30.10,SSE,158,2.3,2.3,81,0.00,CLR,,0.02,WeatherDisplay:10.37,2013-02-26 05:35:00,
2013-02-25 21:40:00,37.2,31.9,30.10,SSE,158,3.4,3.4,81,0.00,CLR,,0.02,WeatherDisplay:10.37,2013-02-26 05:40:00,
2013-02-25 21:45:00,37.0,31.8,30.10,SSE,158,3.5,3.5,81,0.00,CLR,,0.02,WeatherDisplay:10.37,2013-02-26 05:45:00,
2013-02-25 21:50:00,36.9,31.6,30.10,NW,315,5.8,6.0,81,0.00,CLR,,0.02,WeatherDisplay:10.37,2013-02-26 05:50:00,
2013-02-25 21:55:00,36.5,31.2,30.11,NNW,338,5.1,5.1,81,0.00,CLR,,0.02,WeatherDisplay:10.37,2013-02-26 05:55:00,
2013-02-25 22:00:00,36.3,31.4,30.10,NNE,22,4.6,4.6,82,0.00,CLR,,0.02,WeatherDisplay:10.37,2013-02-26 06:00:00,
2013-02-25 22:05:00,36.3,31.4,30.11,North,0,3.5,3.5,82,0.00,CLR,,0.02,WeatherDisplay:10.37,2013-02-26 06:05:00,
2013-02-25 22:10:00,36.3,31.7,30.11,North,0,0.0,0.0,83,0.00,CLR,,0.02,WeatherDisplay:10.37,2013-02-26 06:10:00,
2013-02-25 22:15:00,36.3,31.7,30.11,North,0,2.3,2.3,83,0.00,CLR,,0.02,WeatherDisplay:10.37,2013-02-26 06:15:00,
2013-02-25 22:20:00,36.1,31.5,30.12,North,0,0.0,0.0,83,0.00,CLR,,0.02,WeatherDisplay:10.37,2013-02-26 06:20:00,
2013-02-25 22:25:00,36.1,31.5,30.12,North,0,0.0,0.0,83,0.00,CLR,,0.02,WeatherDisplay:10.37,2013-02-26 06:25:00,
2013-02-25 22:30:00,36.0,31.3,30.12,North,0,0.0,0.0,83,0.00,CLR,,0.02,WeatherDisplay:10.37,2013-02-26 06:30:00,
2013-02-25 22:35:00,35.8,31.1,30.12,North,0,0.0,0.0,83,0.00,CLR,,0.02,WeatherDisplay:10.37,2013-02-26 06:35:00,
2013-02-25 22:40:00,35.4,30.8,30.12,North,0,0.0,0.0,83,0.00,CLR,,0.02,WeatherDisplay:10.37,2013-02-26 06:40:00,
2013-02-25 22:45:00,35.4,30.8,30.12,North,0,0.0,0.0,83,0.00,CLR,,0.02,WeatherDisplay:10.37,2013-02-26 06:45:00,
2013-02-25 22:50:00,35.4,30.8,30.12,North,0,0.0,0.0,83,0.00,CLR,,0.02,WeatherDisplay:10.37,2013-02-26 06:50:00,
2013-02-25 22:55:00,35.2,30.9,30.13,North,0,0.0,0.0,84,0.00,CLR,,0.02,WeatherDisplay:10.37,2013-02-26 06:55:00,
2013-02-25 23:00:00,34.9,30.5,30.13,North,0,0.0,0.0,84,0.00,CLR,,0.02,WeatherDisplay:10.37,2013-02-26 07:00:00,
2013-02-25 23:05:00,34.9,30.5,30.14,North,0,0.0,0.0,84,0.00,CLR,,0.02,WeatherDisplay:10.37,2013-02-26 07:05:00,
2013-02-25 23:10:00,34.9,30.5,30.14,North,0,0.0,0.0,84,0.00,CLR,,0.02,WeatherDisplay:10.37,2013-02-26 07:10:00,
2013-02-25 23:15:00,34.9,30.5,30.14,North,0,0.0,0.0,84,0.00,CLR,,0.02,WeatherDisplay:10.37,2013-02-26 07:15:00,
2013-02-25 23:20:00,34.9,30.5,30.13,North,0,0.0,0.0,84,0.00,CLR,,0.02,WeatherDisplay:10.37,2013-02-26 07:20:00,
2013-02-25 23:25:00,34.9,30.5,30.13,North,0,0.0,0.0,84,0.00,CLR,,0.02,WeatherDisplay:10.37,2013-02-26 07:25:00,
2013-02-25 23:30:00,34.5,30.2,30.14,North,0,0.0,0.0,84,0.00,CLR,,0.02,WeatherDisplay:10.37,2013-02-26 07:30:00,
2013-02-25 23:35:00,34.5,30.2,30.14,North,0,0.0,0.0,84,0.00,CLR,,0.02,WeatherDisplay:10.37,2013-02-26 07:35:00,
2013-02-25 23:40:00,34.3,30.0,30.14,WNW,292,3.5,3.5,84,0.00,CLR,,0.02,WeatherDisplay:10.37,2013-02-26 07:40:00,
2013-02-25 23:45:00,34.3,30.3,30.14,WNW,292,0.0,0.0,85,0.00,CLR,,0.02,WeatherDisplay:10.37,2013-02-26 07:45:00,
2013-02-25 23:50:00,34.3,30.3,30.14,WNW,292,0.0,0.0,85,0.00,CLR,,0.02,WeatherDisplay:10.37,2013-02-26 07:50:00,
2013-02-25 23:55:00,34.3,30.3,30.15,WNW,292,0.0,0.0,85,0.00,CLR,,0.02,WeatherDisplay:10.37,2013-02-26 07:55:00,